E.r. Borneo — A8SZ4 — position and weather

sailwx.info

Track history (hours):
 
Tides and Currents Weather Stations Pressure Air Temp Water Temp Dewpoint Dewpoint Depression Visibility Wind Speed Wind Dir Waves Ship Positions

E.r. Borneo

Last reported at 2015-Apr-27 15:17 UTC. Time now 2015-May-27 13:53 UTC.
Position N 02°10' E 102°00'.
Warning: this ship's position is 29 days out of date.

Length 292 m; draft 17.6 m.

Type: Cargo ship. MMSI: 636091797.

Date/timePositionNaut miles runAvg speedWind from/ knotsBaromVisibWave heightAir tempDewpointWater temp
2015-Apr-27 15:17N 02°10' E 102°00'1110.0
2015-Apr-27 14:11N 02°03' E 102°08'710.1
2015-Apr-27 13:29N 01°58' E 102°14'9 9.8
2015-Apr-27 12:31N 01°53' E 102°22'9 9.8
2015-Apr-27 11:33N 01°49' E 102°30'10 9.5
2015-Apr-27 10:28N 01°45' E 102°40'78 8.8
2015-Apr-27 01:33N 01°12' E 103°51'8 8.4
2015-Apr-27 00:33N 01°15' E 103°58'3 3.2
2015-Apr-26 23:28N 01°17' E 104°01'0 0.1
2015-Apr-26 21:22N 01°17' E 104°01'0 0.0
2015-Apr-26 20:22N 01°17' E 104°01'0 0.1
2015-Apr-26 19:33N 01°17' E 104°01'0 0.0
2015-Apr-26 18:33N 01°17' E 104°01'0 0.0
2015-Apr-26 17:28N 01°17' E 104°01'0 0.0
2015-Apr-26 16:33N 01°17' E 104°01'0 0.0
2015-Apr-26 15:31N 01°17' E 104°01'0 0.0
2015-Apr-26 14:21N 01°17' E 104°01'0 0.0
2015-Apr-26 13:33N 01°17' E 104°01'0 0.0
2015-Apr-26 12:32N 01°17' E 104°01'0 0.1
2015-Apr-26 11:33N 01°17' E 104°01'0 0.0
2015-Apr-26 10:33N 01°17' E 104°01'0 0.0
2015-Apr-26 09:33N 01°17' E 104°01'4 3.9
2015-Apr-26 08:33N 01°16' E 103°57'1 1.0
2015-Apr-26 07:33N 01°16' E 103°58'4 4.4
2015-Apr-26 06:33N 01°16' E 104°02'6 6.2
2015-Apr-26 05:33N 01°17' E 104°08'  
Track history (hours):
 
Tides and Currents Weather Stations Pressure Air Temp Water Temp Dewpoint Dewpoint Depression Visibility Wind Speed Wind Dir Waves Ship Positions

E.r. Borneo

Last reported at 2015-Apr-27 15:17 UTC. Time now 2015-May-27 13:53 UTC.
Position N 02°10' E 102°00'.
Warning: this ship's position is 29 days out of date.

Length 292 m; draft 17.6 m.

Type: Cargo ship. MMSI: 636091797.

Date/timePositionNaut miles runAvg speedWind from/ knotsBaromVisibWave heightAir tempDewpointWater temp
2015-Apr-27 15:17N 02°10' E 102°00'1110.0
2015-Apr-27 14:11N 02°03' E 102°08'710.1
2015-Apr-27 13:29N 01°58' E 102°14'9 9.8
2015-Apr-27 12:31N 01°53' E 102°22'9 9.8
2015-Apr-27 11:33N 01°49' E 102°30'10 9.5
2015-Apr-27 10:28N 01°45' E 102°40'78 8.8
2015-Apr-27 01:33N 01°12' E 103°51'8 8.4
2015-Apr-27 00:33N 01°15' E 103°58'3 3.2
2015-Apr-26 23:28N 01°17' E 104°01'0 0.1
2015-Apr-26 21:22N 01°17' E 104°01'0 0.0
2015-Apr-26 20:22N 01°17' E 104°01'0 0.1
2015-Apr-26 19:33N 01°17' E 104°01'0 0.0
2015-Apr-26 18:33N 01°17' E 104°01'0 0.0
2015-Apr-26 17:28N 01°17' E 104°01'0 0.0
2015-Apr-26 16:33N 01°17' E 104°01'0 0.0
2015-Apr-26 15:31N 01°17' E 104°01'0 0.0
2015-Apr-26 14:21N 01°17' E 104°01'0 0.0
2015-Apr-26 13:33N 01°17' E 104°01'0 0.0
2015-Apr-26 12:32N 01°17' E 104°01'0 0.1
2015-Apr-26 11:33N 01°17' E 104°01'0 0.0
2015-Apr-26 10:33N 01°17' E 104°01'0 0.0
2015-Apr-26 09:33N 01°17' E 104°01'4 3.9
2015-Apr-26 08:33N 01°16' E 103°57'1 1.0
2015-Apr-26 07:33N 01°16' E 103°58'4 4.4
2015-Apr-26 06:33N 01°16' E 104°02'6 6.2
2015-Apr-26 05:33N 01°17' E 104°08'  

Dump ship's entire track history